sensor_id;sensor_type;location;lat;lon;timestamp;P1;durP1;ratioP1;P2;durP2;ratioP2
32800;SDS011;40572;45.552;12.072;2022-09-09T00:00:05;4.53;;;3.30;;
32800;SDS011;40572;45.552;12.072;2022-09-09T00:02:32;4.07;;;3.50;;
32800;SDS011;40572;45.552;12.072;2022-09-09T00:07:38;4.33;;;3.00;;
32800;SDS011;40572;45.552;12.072;2022-09-09T00:10:17;4.47;;;3.70;;
32800;SDS011;40572;45.552;12.072;2022-09-09T00:12:43;6.17;;;3.70;;
32800;SDS011;40572;45.552;12.072;2022-09-09T00:15:11;4.83;;;3.30;;
32800;SDS011;40572;45.552;12.072;2022-09-09T00:17:38;5.73;;;3.33;;
32800;SDS011;40572;45.552;12.072;2022-09-09T00:20:12;4.57;;;3.13;;
32800;SDS011;40572;45.552;12.072;2022-09-09T00:22:40;4.50;;;3.10;;
32800;SDS011;40572;45.552;12.072;2022-09-09T00:25:11;4.70;;;3.40;;
32800;SDS011;40572;45.552;12.072;2022-09-09T00:30:20;4.77;;;3.00;;
32800;SDS011;40572;45.552;12.072;2022-09-09T00:35:18;6.62;;;3.12;;
32800;SDS011;40572;45.552;12.072;2022-09-09T00:37:46;4.42;;;3.12;;
32800;SDS011;40572;45.552;12.072;2022-09-09T00:40:18;4.03;;;2.80;;
32800;SDS011;40572;45.552;12.072;2022-09-09T00:42:44;3.77;;;2.70;;
32800;SDS011;40572;45.552;12.072;2022-09-09T00:47:40;4.73;;;3.20;;
32800;SDS011;40572;45.552;12.072;2022-09-09T00:52:39;3.43;;;3.00;;
32800;SDS011;40572;45.552;12.072;2022-09-09T00:57:36;5.73;;;3.20;;
32800;SDS011;40572;45.552;12.072;2022-09-09T01:05:34;3.57;;;3.23;;
32800;SDS011;40572;45.552;12.072;2022-09-09T01:08:00;3.50;;;3.20;;
32800;SDS011;40572;45.552;12.072;2022-09-09T01:13:23;6.53;;;3.20;;
32800;SDS011;40572;45.552;12.072;2022-09-09T01:15:47;5.65;;;3.37;;
32800;SDS011;40572;45.552;12.072;2022-09-09T01:18:15;3.83;;;3.20;;
32800;SDS011;40572;45.552;12.072;2022-09-09T01:26:10;4.00;;;3.23;;
32800;SDS011;40572;45.552;12.072;2022-09-09T01:28:38;4.72;;;3.30;;
32800;SDS011;40572;45.552;12.072;2022-09-09T01:31:07;3.93;;;3.00;;
32800;SDS011;40572;45.552;12.072;2022-09-09T01:33:36;6.43;;;3.20;;
32800;SDS011;40572;45.552;12.072;2022-09-09T01:38:35;4.80;;;2.77;;
32800;SDS011;40572;45.552;12.072;2022-09-09T01:41:02;5.08;;;3.42;;
32800;SDS011;40572;45.552;12.072;2022-09-09T01:43:30;4.93;;;2.73;;
32800;SDS011;40572;45.552;12.072;2022-09-09T01:45:58;4.63;;;2.67;;
32800;SDS011;40572;45.552;12.072;2022-09-09T01:48:25;3.13;;;2.57;;
32800;SDS011;40572;45.552;12.072;2022-09-09T01:50:54;5.10;;;2.70;;
32800;SDS011;40572;45.552;12.072;2022-09-09T01:53:20;4.47;;;2.55;;
32800;SDS011;40572;45.552;12.072;2022-09-09T02:03:36;4.37;;;2.73;;
32800;SDS011;40572;45.552;12.072;2022-09-09T02:11:06;3.63;;;3.00;;
32800;SDS011;40572;45.552;12.072;2022-09-09T02:13:36;5.20;;;2.60;;
32800;SDS011;40572;45.552;12.072;2022-09-09T02:16:06;5.03;;;2.67;;
32800;SDS011;40572;45.552;12.072;2022-09-09T02:21:09;3.70;;;2.60;;
32800;SDS011;40572;45.552;12.072;2022-09-09T02:23:37;3.73;;;2.93;;
32800;SDS011;40572;45.552;12.072;2022-09-09T02:26:06;3.20;;;2.90;;
32800;SDS011;40572;45.552;12.072;2022-09-09T02:28:33;4.20;;;2.87;;
32800;SDS011;40572;45.552;12.072;2022-09-09T02:31:00;6.25;;;2.87;;
32800;SDS011;40572;45.552;12.072;2022-09-09T02:33:30;2.90;;;2.60;;
32800;SDS011;40572;45.552;12.072;2022-09-09T02:35:56;5.60;;;3.23;;
32800;SDS011;40572;45.552;12.072;2022-09-09T02:38:25;3.93;;;2.70;;
32800;SDS011;40572;45.552;12.072;2022-09-09T02:40:56;4.13;;;3.07;;
32800;SDS011;40572;45.552;12.072;2022-09-09T02:43:24;4.17;;;2.87;;
32800;SDS011;40572;45.552;12.072;2022-09-09T02:51:12;4.30;;;2.60;;
32800;SDS011;40572;45.552;12.072;2022-09-09T02:53:49;6.50;;;2.97;;
32800;SDS011;40572;45.552;12.072;2022-09-09T02:56:09;5.37;;;2.58;;
32800;SDS011;40572;45.552;12.072;2022-09-09T02:58:36;3.17;;;2.60;;
32800;SDS011;40572;45.552;12.072;2022-09-09T03:01:04;5.20;;;3.13;;
32800;SDS011;40572;45.552;12.072;2022-09-09T03:03:30;4.20;;;2.77;;
32800;SDS011;40572;45.552;12.072;2022-09-09T03:05:58;3.87;;;2.80;;
32800;SDS011;40572;45.552;12.072;2022-09-09T03:08:25;5.53;;;2.92;;
32800;SDS011;40572;45.552;12.072;2022-09-09T03:10:57;3.50;;;2.70;;
32800;SDS011;40572;45.552;12.072;2022-09-09T03:13:25;4.77;;;3.33;;
32800;SDS011;40572;45.552;12.072;2022-09-09T03:15:51;5.72;;;3.05;;
32800;SDS011;40572;45.552;12.072;2022-09-09T03:18:19;3.53;;;3.20;;
32800;SDS011;40572;45.552;12.072;2022-09-09T03:20:47;4.75;;;2.83;;
32800;SDS011;40572;45.552;12.072;2022-09-09T03:23:16;3.23;;;2.93;;
32800;SDS011;40572;45.552;12.072;2022-09-09T03:25:46;4.07;;;2.90;;
32800;SDS011;40572;45.552;12.072;2022-09-09T03:28:12;3.93;;;2.73;;
32800;SDS011;40572;45.552;12.072;2022-09-09T03:30:38;2.95;;;2.65;;
32800;SDS011;40572;45.552;12.072;2022-09-09T03:33:05;4.35;;;2.62;;
32800;SDS011;40572;45.552;12.072;2022-09-09T03:35:32;2.80;;;2.43;;
32800;SDS011;40572;45.552;12.072;2022-09-09T03:37:58;3.17;;;2.80;;
32800;SDS011;40572;45.552;12.072;2022-09-09T03:40:27;3.33;;;2.70;;
32800;SDS011;40572;45.552;12.072;2022-09-09T03:42:53;4.90;;;3.00;;
32800;SDS011;40572;45.552;12.072;2022-09-09T03:45:19;4.40;;;2.62;;
32800;SDS011;40572;45.552;12.072;2022-09-09T03:47:46;5.77;;;3.03;;
32800;SDS011;40572;45.552;12.072;2022-09-09T03:50:14;3.70;;;2.90;;
32800;SDS011;40572;45.552;12.072;2022-09-09T03:52:42;3.83;;;2.77;;
32800;SDS011;40572;45.552;12.072;2022-09-09T03:55:11;4.13;;;2.67;;
32800;SDS011;40572;45.552;12.072;2022-09-09T03:57:37;3.92;;;2.98;;
32800;SDS011;40572;45.552;12.072;2022-09-09T04:00:06;4.80;;;2.70;;
32800;SDS011;40572;45.552;12.072;2022-09-09T04:02:36;5.03;;;2.80;;
32800;SDS011;40572;45.552;12.072;2022-09-09T04:05:03;3.70;;;2.95;;
32800;SDS011;40572;45.552;12.072;2022-09-09T04:07:29;4.33;;;2.90;;
32800;SDS011;40572;45.552;12.072;2022-09-09T04:09:56;4.28;;;3.12;;
32800;SDS011;40572;45.552;12.072;2022-09-09T04:12:22;4.00;;;2.70;;
32800;SDS011;40572;45.552;12.072;2022-09-09T04:14:49;3.73;;;3.07;;
32800;SDS011;40572;45.552;12.072;2022-09-09T04:17:15;3.30;;;2.90;;
32800;SDS011;40572;45.552;12.072;2022-09-09T04:19:41;4.20;;;3.02;;
32800;SDS011;40572;45.552;12.072;2022-09-09T04:22:08;6.35;;;3.27;;
32800;SDS011;40572;45.552;12.072;2022-09-09T04:24:34;4.90;;;3.17;;
32800;SDS011;40572;45.552;12.072;2022-09-09T04:27:01;4.53;;;2.85;;
32800;SDS011;40572;45.552;12.072;2022-09-09T04:29:27;3.83;;;3.13;;
32800;SDS011;40572;45.552;12.072;2022-09-09T04:31:53;4.58;;;2.95;;
32800;SDS011;40572;45.552;12.072;2022-09-09T04:34:20;6.85;;;3.12;;
32800;SDS011;40572;45.552;12.072;2022-09-09T04:36:47;3.17;;;2.70;;
32800;SDS011;40572;45.552;12.072;2022-09-09T04:39:13;6.83;;;3.15;;
32800;SDS011;40572;45.552;12.072;2022-09-09T04:41:40;5.10;;;2.83;;
32800;SDS011;40572;45.552;12.072;2022-09-09T04:44:08;7.50;;;3.37;;
32800;SDS011;40572;45.552;12.072;2022-09-09T04:46:36;4.42;;;2.75;;
32800;SDS011;40572;45.552;12.072;2022-09-09T04:49:03;4.93;;;2.97;;
32800;SDS011;40572;45.552;12.072;2022-09-09T04:51:30;4.47;;;2.90;;
32800;SDS011;40572;45.552;12.072;2022-09-09T04:53:57;6.07;;;2.90;;
32800;SDS011;40572;45.552;12.072;2022-09-09T04:56:23;4.27;;;3.10;;
32800;SDS011;40572;45.552;12.072;2022-09-09T04:58:53;3.75;;;2.58;;
32800;SDS011;40572;45.552;12.072;2022-09-09T05:01:22;4.87;;;3.10;;
32800;SDS011;40572;45.552;12.072;2022-09-09T05:03:50;8.30;;;3.17;;
32800;SDS011;40572;45.552;12.072;2022-09-09T05:06:20;3.63;;;3.10;;
32800;SDS011;40572;45.552;12.072;2022-09-09T05:08:47;4.47;;;2.83;;
32800;SDS011;40572;45.552;12.072;2022-09-09T05:11:18;5.40;;;3.22;;
32800;SDS011;40572;45.552;12.072;2022-09-09T05:13:46;3.63;;;3.03;;
32800;SDS011;40572;45.552;12.072;2022-09-09T05:16:13;4.57;;;3.03;;
32800;SDS011;40572;45.552;12.072;2022-09-09T05:18:39;4.67;;;3.10;;
32800;SDS011;40572;45.552;12.072;2022-09-09T05:21:06;5.27;;;3.07;;
32800;SDS011;40572;45.552;12.072;2022-09-09T05:23:33;4.20;;;2.77;;
32800;SDS011;40572;45.552;12.072;2022-09-09T05:25:59;7.00;;;3.40;;
32800;SDS011;40572;45.552;12.072;2022-09-09T05:28:27;5.47;;;3.03;;
32800;SDS011;40572;45.552;12.072;2022-09-09T05:31:06;5.10;;;3.07;;
32800;SDS011;40572;45.552;12.072;2022-09-09T05:33:37;5.63;;;3.37;;
32800;SDS011;40572;45.552;12.072;2022-09-09T05:36:10;9.08;;;3.50;;
32800;SDS011;40572;45.552;12.072;2022-09-09T05:38:34;7.77;;;4.27;;
32800;SDS011;40572;45.552;12.072;2022-09-09T05:41:00;5.50;;;3.20;;
32800;SDS011;40572;45.552;12.072;2022-09-09T05:43:29;5.67;;;3.30;;
32800;SDS011;40572;45.552;12.072;2022-09-09T05:46:03;6.47;;;3.60;;
32800;SDS011;40572;45.552;12.072;2022-09-09T05:48:29;5.12;;;3.22;;
32800;SDS011;40572;45.552;12.072;2022-09-09T05:50:55;4.87;;;3.53;;
32800;SDS011;40572;45.552;12.072;2022-09-09T05:53:22;4.83;;;3.23;;
32800;SDS011;40572;45.552;12.072;2022-09-09T05:55:48;5.05;;;2.92;;
32800;SDS011;40572;45.552;12.072;2022-09-09T05:58:14;3.60;;;3.10;;
32800;SDS011;40572;45.552;12.072;2022-09-09T06:00:42;3.77;;;2.60;;
32800;SDS011;40572;45.552;12.072;2022-09-09T06:03:12;4.63;;;2.83;;
32800;SDS011;40572;45.552;12.072;2022-09-09T06:05:39;3.17;;;2.63;;
32800;SDS011;40572;45.552;12.072;2022-09-09T06:08:05;3.35;;;2.62;;
32800;SDS011;40572;45.552;12.072;2022-09-09T06:10:33;3.37;;;2.60;;
32800;SDS011;40572;45.552;12.072;2022-09-09T06:13:00;6.10;;;2.70;;
32800;SDS011;40572;45.552;12.072;2022-09-09T06:15:26;4.90;;;2.70;;
32800;SDS011;40572;45.552;12.072;2022-09-09T06:17:56;3.83;;;2.73;;
32800;SDS011;40572;45.552;12.072;2022-09-09T06:20:22;4.50;;;3.10;;
32800;SDS011;40572;45.552;12.072;2022-09-09T06:22:48;4.20;;;2.90;;
32800;SDS011;40572;45.552;12.072;2022-09-09T06:25:14;5.33;;;2.45;;
32800;SDS011;40572;45.552;12.072;2022-09-09T06:27:40;3.80;;;2.47;;
32800;SDS011;40572;45.552;12.072;2022-09-09T06:30:09;4.13;;;2.50;;
32800;SDS011;40572;45.552;12.072;2022-09-09T06:32:35;7.07;;;3.37;;
32800;SDS011;40572;45.552;12.072;2022-09-09T06:35:03;4.87;;;3.30;;
32800;SDS011;40572;45.552;12.072;2022-09-09T06:37:30;5.80;;;3.30;;
32800;SDS011;40572;45.552;12.072;2022-09-09T06:39:57;4.20;;;2.77;;
32800;SDS011;40572;45.552;12.072;2022-09-09T06:42:24;3.43;;;2.87;;
32800;SDS011;40572;45.552;12.072;2022-09-09T06:45:09;4.40;;;2.50;;
32800;SDS011;40572;45.552;12.072;2022-09-09T06:47:37;5.73;;;2.90;;
32800;SDS011;40572;45.552;12.072;2022-09-09T06:50:04;3.52;;;2.50;;
32800;SDS011;40572;45.552;12.072;2022-09-09T06:52:32;5.13;;;2.67;;
32800;SDS011;40572;45.552;12.072;2022-09-09T06:55:00;3.50;;;2.40;;
32800;SDS011;40572;45.552;12.072;2022-09-09T06:57:26;2.77;;;2.30;;
32800;SDS011;40572;45.552;12.072;2022-09-09T06:59:52;3.58;;;2.50;;
32800;SDS011;40572;45.552;12.072;2022-09-09T07:02:18;5.83;;;2.95;;
32800;SDS011;40572;45.552;12.072;2022-09-09T07:04:44;4.83;;;2.80;;
32800;SDS011;40572;45.552;12.072;2022-09-09T07:07:11;5.60;;;2.70;;
32800;SDS011;40572;45.552;12.072;2022-09-09T07:09:39;6.27;;;2.97;;
32800;SDS011;40572;45.552;12.072;2022-09-09T07:12:06;4.33;;;3.10;;
32800;SDS011;40572;45.552;12.072;2022-09-09T07:14:33;5.17;;;2.72;;
32800;SDS011;40572;45.552;12.072;2022-09-09T07:17:02;4.90;;;2.77;;
32800;SDS011;40572;45.552;12.072;2022-09-09T07:19:30;4.20;;;2.60;;
32800;SDS011;40572;45.552;12.072;2022-09-09T07:21:56;4.20;;;2.90;;
32800;SDS011;40572;45.552;12.072;2022-09-09T07:24:23;5.43;;;2.60;;
32800;SDS011;40572;45.552;12.072;2022-09-09T07:26:50;4.25;;;3.20;;
32800;SDS011;40572;45.552;12.072;2022-09-09T07:29:17;4.27;;;2.20;;
32800;SDS011;40572;45.552;12.072;2022-09-09T07:31:43;5.40;;;2.52;;
32800;SDS011;40572;45.552;12.072;2022-09-09T07:34:11;6.47;;;2.70;;
32800;SDS011;40572;45.552;12.072;2022-09-09T07:36:39;6.47;;;2.67;;
32800;SDS011;40572;45.552;12.072;2022-09-09T07:39:07;5.45;;;2.40;;
32800;SDS011;40572;45.552;12.072;2022-09-09T07:41:45;3.77;;;2.70;;
32800;SDS011;40572;45.552;12.072;2022-09-09T07:44:16;5.03;;;2.83;;
32800;SDS011;40572;45.552;12.072;2022-09-09T07:46:44;3.47;;;2.53;;
32800;SDS011;40572;45.552;12.072;2022-09-09T07:49:13;4.17;;;3.20;;
32800;SDS011;40572;45.552;12.072;2022-09-09T07:51:40;3.17;;;2.37;;
32800;SDS011;40572;45.552;12.072;2022-09-09T07:54:08;4.03;;;2.90;;
32800;SDS011;40572;45.552;12.072;2022-09-09T07:56:36;4.27;;;3.20;;
32800;SDS011;40572;45.552;12.072;2022-09-09T07:59:03;6.00;;;2.87;;
32800;SDS011;40572;45.552;12.072;2022-09-09T08:01:34;3.03;;;1.97;;
32800;SDS011;40572;45.552;12.072;2022-09-09T08:04:09;2.67;;;2.37;;
32800;SDS011;40572;45.552;12.072;2022-09-09T08:06:37;5.80;;;2.67;;
32800;SDS011;40572;45.552;12.072;2022-09-09T08:09:05;5.83;;;2.90;;
32800;SDS011;40572;45.552;12.072;2022-09-09T08:11:32;5.27;;;3.10;;
32800;SDS011;40572;45.552;12.072;2022-09-09T08:14:00;3.83;;;2.53;;
32800;SDS011;40572;45.552;12.072;2022-09-09T08:16:28;4.67;;;2.33;;
32800;SDS011;40572;45.552;12.072;2022-09-09T08:18:56;3.13;;;1.87;;
32800;SDS011;40572;45.552;12.072;2022-09-09T08:21:24;3.70;;;1.90;;
32800;SDS011;40572;45.552;12.072;2022-09-09T08:23:51;3.93;;;2.00;;
32800;SDS011;40572;45.552;12.072;2022-09-09T08:26:25;4.70;;;2.47;;
32800;SDS011;40572;45.552;12.072;2022-09-09T08:28:53;6.30;;;2.90;;
32800;SDS011;40572;45.552;12.072;2022-09-09T08:31:26;5.60;;;2.70;;
32800;SDS011;40572;45.552;12.072;2022-09-09T08:33:48;4.83;;;2.50;;
32800;SDS011;40572;45.552;12.072;2022-09-09T08:36:21;4.00;;;2.53;;
32800;SDS011;40572;45.552;12.072;2022-09-09T08:38:43;5.13;;;2.60;;
32800;SDS011;40572;45.552;12.072;2022-09-09T08:46:46;4.63;;;2.20;;
32800;SDS011;40572;45.552;12.072;2022-09-09T08:51:45;5.67;;;2.90;;
32800;SDS011;40572;45.552;12.072;2022-09-09T08:54:13;4.97;;;2.20;;
32800;SDS011;40572;45.552;12.072;2022-09-09T08:56:39;3.00;;;2.27;;
32800;SDS011;40572;45.552;12.072;2022-09-09T08:59:05;4.00;;;2.45;;
32800;SDS011;40572;45.552;12.072;2022-09-09T09:01:44;2.67;;;1.80;;
32800;SDS011;40572;45.552;12.072;2022-09-09T09:04:28;5.67;;;2.03;;
32800;SDS011;40572;45.552;12.072;2022-09-09T09:06:59;4.07;;;2.07;;
32800;SDS011;40572;45.552;12.072;2022-09-09T09:12:16;3.50;;;2.27;;
32800;SDS011;40572;45.552;12.072;2022-09-09T09:14:45;2.80;;;2.20;;
32800;SDS011;40572;45.552;12.072;2022-09-09T09:19:41;4.70;;;1.87;;
32800;SDS011;40572;45.552;12.072;2022-09-09T09:27:40;4.10;;;2.40;;
32800;SDS011;40572;45.552;12.072;2022-09-09T09:30:15;3.37;;;1.97;;
32800;SDS011;40572;45.552;12.072;2022-09-09T09:32:53;2.90;;;2.15;;
32800;SDS011;40572;45.552;12.072;2022-09-09T09:35:11;2.93;;;1.70;;
32800;SDS011;40572;45.552;12.072;2022-09-09T09:37:39;4.57;;;2.10;;
32800;SDS011;40572;45.552;12.072;2022-09-09T09:40:08;3.37;;;1.70;;
32800;SDS011;40572;45.552;12.072;2022-09-09T09:42:35;2.40;;;1.80;;
32800;SDS011;40572;45.552;12.072;2022-09-09T09:45:07;3.17;;;2.10;;
32800;SDS011;40572;45.552;12.072;2022-09-09T09:47:34;4.63;;;2.17;;
32800;SDS011;40572;45.552;12.072;2022-09-09T09:50:02;2.67;;;1.73;;
32800;SDS011;40572;45.552;12.072;2022-09-09T09:52:31;2.20;;;1.80;;
32800;SDS011;40572;45.552;12.072;2022-09-09T09:55:02;4.23;;;2.30;;
32800;SDS011;40572;45.552;12.072;2022-09-09T09:57:28;2.90;;;2.02;;
32800;SDS011;40572;45.552;12.072;2022-09-09T10:02:41;4.00;;;2.20;;
32800;SDS011;40572;45.552;12.072;2022-09-09T10:05:17;5.67;;;1.67;;
32800;SDS011;40572;45.552;12.072;2022-09-09T10:07:45;3.37;;;2.10;;
32800;SDS011;40572;45.552;12.072;2022-09-09T10:10:22;3.45;;;1.80;;
32800;SDS011;40572;45.552;12.072;2022-09-09T10:18:15;3.70;;;1.97;;
32800;SDS011;40572;45.552;12.072;2022-09-09T10:26:07;2.33;;;1.80;;
32800;SDS011;40572;45.552;12.072;2022-09-09T10:31:15;4.30;;;1.70;;
32800;SDS011;40572;45.552;12.072;2022-09-09T10:33:56;3.00;;;1.57;;
32800;SDS011;40572;45.552;12.072;2022-09-09T10:36:29;3.45;;;2.02;;
32800;SDS011;40572;45.552;12.072;2022-09-09T10:38:52;2.23;;;1.53;;
32800;SDS011;40572;45.552;12.072;2022-09-09T10:54:11;3.23;;;1.40;;
32800;SDS011;40572;45.552;12.072;2022-09-09T10:56:34;1.43;;;1.20;;
32800;SDS011;40572;45.552;12.072;2022-09-09T10:59:02;1.43;;;1.17;;
32800;SDS011;40572;45.552;12.072;2022-09-09T11:02:34;3.37;;;1.22;;
32800;SDS011;40572;45.552;12.072;2022-09-09T11:04:10;1.50;;;1.40;;
32800;SDS011;40572;45.552;12.072;2022-09-09T11:06:39;2.17;;;1.23;;
32800;SDS011;40572;45.552;12.072;2022-09-09T11:09:02;3.13;;;2.10;;
32800;SDS011;40572;45.552;12.072;2022-09-09T11:11:30;1.77;;;1.50;;
32800;SDS011;40572;45.552;12.072;2022-09-09T11:14:05;3.00;;;2.00;;
32800;SDS011;40572;45.552;12.072;2022-09-09T11:19:03;2.80;;;1.80;;
32800;SDS011;40572;45.552;12.072;2022-09-09T11:21:37;1.93;;;1.47;;
32800;SDS011;40572;45.552;12.072;2022-09-09T11:24:08;1.87;;;1.60;;
32800;SDS011;40572;45.552;12.072;2022-09-09T11:26:38;2.52;;;1.45;;
32800;SDS011;40572;45.552;12.072;2022-09-09T11:34:50;3.50;;;1.40;;
32800;SDS011;40572;45.552;12.072;2022-09-09T11:37:21;1.83;;;1.33;;
32800;SDS011;40572;45.552;12.072;2022-09-09T11:42:31;3.43;;;1.57;;
32800;SDS011;40572;45.552;12.072;2022-09-09T11:44:57;1.82;;;1.35;;
32800;SDS011;40572;45.552;12.072;2022-09-09T11:47:28;2.23;;;1.37;;
32800;SDS011;40572;45.552;12.072;2022-09-09T11:50:45;5.57;;;2.07;;
32800;SDS011;40572;45.552;12.072;2022-09-09T11:52:25;3.05;;;1.70;;
32800;SDS011;40572;45.552;12.072;2022-09-09T11:54:54;2.97;;;2.10;;
32800;SDS011;40572;45.552;12.072;2022-09-09T11:57:31;2.90;;;1.70;;
32800;SDS011;40572;45.552;12.072;2022-09-09T11:59:54;3.00;;;1.97;;
32800;SDS011;40572;45.552;12.072;2022-09-09T12:02:24;3.70;;;1.70;;
32800;SDS011;40572;45.552;12.072;2022-09-09T12:04:56;3.00;;;1.98;;
32800;SDS011;40572;45.552;12.072;2022-09-09T12:09:52;3.03;;;2.10;;
32800;SDS011;40572;45.552;12.072;2022-09-09T12:12:35;2.73;;;1.80;;
32800;SDS011;40572;45.552;12.072;2022-09-09T12:17:43;3.55;;;2.12;;
32800;SDS011;40572;45.552;12.072;2022-09-09T12:23:13;2.93;;;2.17;;
32800;SDS011;40572;45.552;12.072;2022-09-09T12:28:19;3.67;;;2.10;;
32800;SDS011;40572;45.552;12.072;2022-09-09T12:30:55;2.72;;;1.95;;
32800;SDS011;40572;45.552;12.072;2022-09-09T12:33:20;2.97;;;2.00;;
32800;SDS011;40572;45.552;12.072;2022-09-09T12:35:50;2.47;;;1.93;;
32800;SDS011;40572;45.552;12.072;2022-09-09T12:38:17;4.47;;;2.40;;
32800;SDS011;40572;45.552;12.072;2022-09-09T12:40:53;4.93;;;2.57;;
32800;SDS011;40572;45.552;12.072;2022-09-09T12:43:18;4.25;;;2.17;;
32800;SDS011;40572;45.552;12.072;2022-09-09T12:45:46;2.50;;;1.93;;
32800;SDS011;40572;45.552;12.072;2022-09-09T12:48:12;4.00;;;2.00;;
32800;SDS011;40572;45.552;12.072;2022-09-09T12:50:44;2.00;;;1.60;;
32800;SDS011;40572;45.552;12.072;2022-09-09T12:56:00;3.55;;;2.12;;
32800;SDS011;40572;45.552;12.072;2022-09-09T12:58:23;3.30;;;1.90;;
32800;SDS011;40572;45.552;12.072;2022-09-09T13:00:54;4.20;;;1.70;;
32800;SDS011;40572;45.552;12.072;2022-09-09T13:03:23;2.50;;;1.60;;
32800;SDS011;40572;45.552;12.072;2022-09-09T13:05:50;1.80;;;1.60;;
32800;SDS011;40572;45.552;12.072;2022-09-09T13:08:17;4.60;;;2.02;;
32800;SDS011;40572;45.552;12.072;2022-09-09T13:13:22;3.83;;;1.60;;
32800;SDS011;40572;45.552;12.072;2022-09-09T13:15:56;1.90;;;1.50;;
32800;SDS011;40572;45.552;12.072;2022-09-09T13:18:24;1.97;;;1.33;;
32800;SDS011;40572;45.552;12.072;2022-09-09T13:20:48;3.02;;;1.82;;
32800;SDS011;40572;45.552;12.072;2022-09-09T13:23:15;2.60;;;1.73;;
32800;SDS011;40572;45.552;12.072;2022-09-09T13:25:41;2.53;;;1.87;;
32800;SDS011;40572;45.552;12.072;2022-09-09T13:28:20;2.93;;;1.93;;
32800;SDS011;40572;45.552;12.072;2022-09-09T13:30:54;6.47;;;1.90;;
32800;SDS011;40572;45.552;12.072;2022-09-09T13:38:15;6.33;;;1.77;;
32800;SDS011;40572;45.552;12.072;2022-09-09T13:40:52;8.13;;;2.40;;
32800;SDS011;40572;45.552;12.072;2022-09-09T13:43:14;5.03;;;2.03;;
32800;SDS011;40572;45.552;12.072;2022-09-09T13:45:51;3.58;;;1.15;;
32800;SDS011;40572;45.552;12.072;2022-09-09T13:48:10;3.97;;;1.07;;
32800;SDS011;40572;45.552;12.072;2022-09-09T13:50:36;1.73;;;1.00;;
32800;SDS011;40572;45.552;12.072;2022-09-09T13:53:04;3.80;;;1.37;;
32800;SDS011;40572;45.552;12.072;2022-09-09T13:55:31;2.17;;;1.07;;
32800;SDS011;40572;45.552;12.072;2022-09-09T13:57:58;1.87;;;0.90;;
32800;SDS011;40572;45.552;12.072;2022-09-09T14:00:26;1.70;;;0.87;;
32800;SDS011;40572;45.552;12.072;2022-09-09T14:02:53;1.23;;;0.67;;
32800;SDS011;40572;45.552;12.072;2022-09-09T14:05:21;1.60;;;0.70;;
32800;SDS011;40572;45.552;12.072;2022-09-09T14:07:48;2.03;;;0.90;;
32800;SDS011;40572;45.552;12.072;2022-09-09T14:10:14;0.67;;;0.67;;
32800;SDS011;40572;45.552;12.072;2022-09-09T14:12:40;0.75;;;0.60;;
32800;SDS011;40572;45.552;12.072;2022-09-09T14:15:07;2.00;;;1.20;;
32800;SDS011;40572;45.552;12.072;2022-09-09T14:17:33;2.27;;;1.40;;
32800;SDS011;40572;45.552;12.072;2022-09-09T14:20:02;2.07;;;1.10;;
32800;SDS011;40572;45.552;12.072;2022-09-09T14:22:31;2.17;;;1.00;;
32800;SDS011;40572;45.552;12.072;2022-09-09T14:24:57;2.47;;;1.40;;
32800;SDS011;40572;45.552;12.072;2022-09-09T14:27:23;3.15;;;1.77;;
32800;SDS011;40572;45.552;12.072;2022-09-09T14:29:51;1.73;;;1.20;;
32800;SDS011;40572;45.552;12.072;2022-09-09T14:32:18;2.50;;;1.60;;
32800;SDS011;40572;45.552;12.072;2022-09-09T14:34:44;5.22;;;2.37;;
32800;SDS011;40572;45.552;12.072;2022-09-09T14:37:10;3.10;;;1.70;;
32800;SDS011;40572;45.552;12.072;2022-09-09T14:39:37;2.10;;;1.90;;
32800;SDS011;40572;45.552;12.072;2022-09-09T14:42:03;3.00;;;1.77;;
32800;SDS011;40572;45.552;12.072;2022-09-09T14:44:30;2.03;;;1.77;;
32800;SDS011;40572;45.552;12.072;2022-09-09T14:46:56;3.72;;;1.92;;
32800;SDS011;40572;45.552;12.072;2022-09-09T14:49:22;3.37;;;2.00;;
32800;SDS011;40572;45.552;12.072;2022-09-09T14:51:48;4.15;;;1.98;;
32800;SDS011;40572;45.552;12.072;2022-09-09T14:54:15;2.40;;;1.70;;
32800;SDS011;40572;45.552;12.072;2022-09-09T14:56:42;2.63;;;1.80;;
32800;SDS011;40572;45.552;12.072;2022-09-09T14:59:08;3.47;;;1.70;;
32800;SDS011;40572;45.552;12.072;2022-09-09T15:01:34;2.35;;;2.00;;
32800;SDS011;40572;45.552;12.072;2022-09-09T15:04:02;2.42;;;1.82;;
32800;SDS011;40572;45.552;12.072;2022-09-09T15:06:30;3.17;;;1.90;;
32800;SDS011;40572;45.552;12.072;2022-09-09T15:08:57;2.33;;;1.87;;
32800;SDS011;40572;45.552;12.072;2022-09-09T15:11:23;3.22;;;1.90;;
32800;SDS011;40572;45.552;12.072;2022-09-09T15:13:51;2.33;;;1.60;;
32800;SDS011;40572;45.552;12.072;2022-09-09T15:16:19;3.50;;;2.30;;
32800;SDS011;40572;45.552;12.072;2022-09-09T15:18:46;2.47;;;1.90;;
32800;SDS011;40572;45.552;12.072;2022-09-09T15:21:14;2.87;;;1.83;;
32800;SDS011;40572;45.552;12.072;2022-09-09T15:23:41;2.42;;;2.00;;
32800;SDS011;40572;45.552;12.072;2022-09-09T15:26:08;3.27;;;1.80;;
32800;SDS011;40572;45.552;12.072;2022-09-09T15:28:35;2.90;;;2.00;;
32800;SDS011;40572;45.552;12.072;2022-09-09T15:31:09;4.00;;;2.07;;
32800;SDS011;40572;45.552;12.072;2022-09-09T15:33:34;2.27;;;1.80;;
32800;SDS011;40572;45.552;12.072;2022-09-09T15:36:25;2.00;;;1.80;;
32800;SDS011;40572;45.552;12.072;2022-09-09T15:38:30;3.27;;;1.73;;
32800;SDS011;40572;45.552;12.072;2022-09-09T15:40:57;2.90;;;1.67;;
32800;SDS011;40572;45.552;12.072;2022-09-09T15:43:24;3.37;;;2.20;;
32800;SDS011;40572;45.552;12.072;2022-09-09T15:45:52;2.10;;;1.67;;
32800;SDS011;40572;45.552;12.072;2022-09-09T15:48:18;2.60;;;1.62;;
32800;SDS011;40572;45.552;12.072;2022-09-09T15:50:44;2.52;;;1.80;;
32800;SDS011;40572;45.552;12.072;2022-09-09T15:53:11;2.40;;;1.72;;
32800;SDS011;40572;45.552;12.072;2022-09-09T15:55:37;2.62;;;2.00;;
32800;SDS011;40572;45.552;12.072;2022-09-09T15:58:03;2.30;;;1.80;;
32800;SDS011;40572;45.552;12.072;2022-09-09T16:00:29;3.58;;;2.00;;
32800;SDS011;40572;45.552;12.072;2022-09-09T16:02:56;2.77;;;1.87;;
32800;SDS011;40572;45.552;12.072;2022-09-09T16:05:22;2.10;;;1.87;;
32800;SDS011;40572;45.552;12.072;2022-09-09T16:07:48;4.27;;;2.17;;
32800;SDS011;40572;45.552;12.072;2022-09-09T16:10:14;3.42;;;2.60;;
32800;SDS011;40572;45.552;12.072;2022-09-09T16:12:40;3.37;;;2.40;;
32800;SDS011;40572;45.552;12.072;2022-09-09T16:15:07;3.12;;;2.10;;
32800;SDS011;40572;45.552;12.072;2022-09-09T16:17:33;3.60;;;1.83;;
32800;SDS011;40572;45.552;12.072;2022-09-09T16:20:02;3.47;;;2.10;;
32800;SDS011;40572;45.552;12.072;2022-09-09T16:22:28;3.97;;;2.40;;
32800;SDS011;40572;45.552;12.072;2022-09-09T16:24:54;3.45;;;2.40;;
32800;SDS011;40572;45.552;12.072;2022-09-09T16:27:20;2.50;;;1.90;;
32800;SDS011;40572;45.552;12.072;2022-09-09T16:29:48;5.00;;;2.63;;
32800;SDS011;40572;45.552;12.072;2022-09-09T16:32:15;4.72;;;2.40;;
32800;SDS011;40572;45.552;12.072;2022-09-09T16:34:42;3.53;;;2.10;;
32800;SDS011;40572;45.552;12.072;2022-09-09T16:37:08;4.30;;;3.02;;
32800;SDS011;40572;45.552;12.072;2022-09-09T16:39:34;3.90;;;2.55;;
32800;SDS011;40572;45.552;12.072;2022-09-09T16:42:04;4.43;;;2.50;;
32800;SDS011;40572;45.552;12.072;2022-09-09T16:44:33;3.63;;;2.20;;
32800;SDS011;40572;45.552;12.072;2022-09-09T16:46:59;2.72;;;2.10;;
32800;SDS011;40572;45.552;12.072;2022-09-09T16:49:25;9.05;;;6.20;;